createdAt,value
2019-06-26T00:00:42.774Z,5.50
2019-06-26T00:03:18.052Z,6.00
2019-06-26T00:05:53.193Z,6.37
2019-06-26T00:08:28.230Z,6.07
2019-06-26T00:11:03.350Z,5.63
2019-06-26T00:13:38.442Z,6.63
2019-06-26T00:16:13.430Z,5.93
2019-06-26T00:18:48.547Z,6.40
2019-06-26T00:21:23.524Z,5.90
2019-06-26T00:23:58.609Z,5.60
2019-06-26T00:26:33.901Z,5.87
2019-06-26T00:29:08.875Z,5.63
2019-06-26T00:31:44.039Z,5.50
2019-06-26T00:34:19.007Z,5.97
2019-06-26T00:36:54.010Z,5.97
2019-06-26T00:39:29.078Z,6.50
2019-06-26T00:42:04.077Z,5.63
2019-06-26T00:44:39.068Z,6.47
2019-06-26T00:47:14.146Z,6.10
2019-06-26T00:49:49.287Z,5.77
2019-06-26T00:52:24.308Z,6.70
2019-06-26T00:54:59.263Z,6.40
2019-06-26T00:57:34.373Z,6.17
2019-06-26T01:00:13.140Z,6.70
2019-06-26T01:02:48.302Z,8.40
2019-06-26T01:05:24.219Z,8.20
2019-06-26T01:07:59.345Z,8.73
2019-06-26T01:10:34.420Z,9.23
2019-06-26T01:13:09.535Z,7.60
2019-06-26T01:15:44.988Z,8.90
2019-06-26T01:18:20.122Z,8.50
2019-06-26T01:20:55.211Z,9.03
2019-06-26T01:23:30.222Z,9.03
2019-06-26T01:26:05.242Z,10.13
2019-06-26T01:28:40.408Z,9.70
2019-06-26T01:31:15.408Z,9.47
2019-06-26T01:33:50.713Z,9.73
2019-06-26T01:36:25.723Z,9.13
2019-06-26T01:39:00.690Z,9.33
2019-06-26T01:41:37.333Z,8.67
2019-06-26T01:44:15.247Z,9.67
2019-06-26T01:46:48.995Z,9.90
2019-06-26T01:49:24.191Z,9.20
2019-06-26T01:51:59.297Z,10.27
2019-06-26T01:54:34.267Z,10.93
2019-06-26T01:57:09.279Z,9.80
2019-06-26T01:59:44.500Z,9.90
2019-06-26T02:02:19.565Z,9.40
2019-06-26T02:04:54.543Z,9.93
2019-06-26T02:07:31.841Z,9.07
2019-06-26T02:10:07.416Z,9.33
2019-06-26T02:12:44.103Z,9.63
2019-06-26T02:15:19.372Z,9.53
2019-06-26T02:17:54.477Z,10.47
2019-06-26T02:20:29.603Z,8.30
2019-06-26T02:23:05.388Z,9.47
2019-06-26T02:25:40.442Z,7.67
2019-06-26T02:28:16.679Z,8.23
2019-06-26T02:30:52.010Z,9.60
2019-06-26T02:33:27.090Z,9.07
2019-06-26T02:36:02.043Z,9.43
2019-06-26T02:38:37.225Z,8.80
2019-06-26T02:41:12.220Z,7.90
2019-06-26T02:43:53.382Z,8.63
2019-06-26T02:46:28.489Z,9.47
2019-06-26T02:49:03.557Z,8.83
2019-06-26T02:51:38.512Z,7.77
2019-06-26T02:54:13.722Z,8.30
2019-06-26T02:56:48.701Z,8.40
2019-06-26T02:59:23.824Z,7.93
2019-06-26T03:01:58.773Z,9.07
2019-06-26T03:04:33.802Z,8.13
2019-06-26T03:07:08.785Z,10.03
2019-06-26T03:09:43.761Z,8.93
2019-06-26T03:12:18.784Z,8.70
2019-06-26T03:15:08.436Z,9.20
2019-06-26T03:17:33.872Z,9.63
2019-06-26T03:20:10.424Z,9.67
2019-06-26T03:22:47.161Z,9.30
2019-06-26T03:25:22.135Z,9.77
2019-06-26T03:27:57.148Z,10.17
2019-06-26T03:30:32.171Z,9.30
2019-06-26T03:33:07.482Z,11.07
2019-06-26T03:35:42.435Z,10.20
2019-06-26T03:38:17.459Z,10.13
2019-06-26T03:40:52.476Z,11.30
2019-06-26T03:43:27.537Z,10.77
2019-06-26T03:46:02.549Z,10.27
2019-06-26T03:48:37.561Z,10.97
2019-06-26T03:51:14.000Z,9.90
2019-06-26T03:53:49.308Z,10.50
2019-06-26T03:56:24.289Z,10.73
2019-06-26T03:58:59.396Z,10.90
2019-06-26T04:01:34.478Z,10.87
2019-06-26T04:04:09.570Z,11.40
2019-06-26T04:06:44.570Z,10.50
2019-06-26T04:09:19.565Z,11.00
2019-06-26T04:11:54.756Z,11.57
2019-06-26T04:14:29.880Z,13.00
2019-06-26T04:17:10.242Z,11.63
2019-06-26T04:19:45.258Z,12.60
2019-06-26T04:22:20.270Z,14.50
2019-06-26T04:24:55.490Z,12.10
2019-06-26T04:27:30.568Z,14.23
2019-06-26T04:30:06.311Z,13.80
2019-06-26T04:32:41.400Z,14.13
2019-06-26T04:35:16.603Z,13.60
2019-06-26T04:37:51.730Z,14.07
2019-06-26T04:40:26.854Z,14.13
2019-06-26T04:43:01.955Z,13.90
2019-06-26T04:45:37.152Z,14.93
2019-06-26T04:48:12.206Z,16.17
2019-06-26T04:50:47.199Z,16.47
2019-06-26T04:53:23.976Z,16.20
2019-06-26T04:55:59.283Z,15.80
2019-06-26T04:58:34.424Z,14.90
2019-06-26T05:01:09.461Z,17.57
2019-06-26T05:03:44.557Z,17.57
2019-06-26T05:06:19.812Z,16.67
2019-06-26T05:08:54.880Z,16.93
2019-06-26T05:11:29.971Z,15.87
2019-06-26T05:14:05.898Z,18.27
2019-06-26T05:16:41.059Z,17.43
2019-06-26T05:19:17.200Z,16.50
2019-06-26T05:21:52.206Z,17.20
2019-06-26T05:24:27.245Z,17.77
2019-06-26T05:27:02.898Z,16.57
2019-06-26T05:29:38.078Z,17.60
2019-06-26T05:32:13.169Z,18.40
2019-06-26T05:34:48.164Z,17.97
2019-06-26T05:37:23.226Z,17.67
2019-06-26T05:39:58.592Z,19.33
2019-06-26T05:42:34.508Z,17.57
2019-06-26T05:45:14.121Z,18.13
2019-06-26T05:47:49.259Z,20.03
2019-06-26T05:50:24.741Z,20.50
2019-06-26T05:52:59.730Z,17.80
2019-06-26T05:55:36.357Z,17.00
2019-06-26T05:58:11.465Z,16.80
2019-06-26T06:00:48.063Z,17.07
2019-06-26T06:03:23.338Z,17.10
2019-06-26T06:05:58.475Z,17.23
2019-06-26T06:08:33.935Z,17.77
2019-06-26T06:11:09.124Z,17.77
2019-06-26T06:13:44.115Z,16.60
2019-06-26T06:16:20.356Z,17.50
2019-06-26T06:18:55.497Z,16.80
2019-06-26T06:21:31.270Z,16.10
2019-06-26T06:24:06.720Z,16.37
2019-06-26T06:26:41.773Z,16.97
2019-06-26T06:29:16.884Z,17.60
2019-06-26T06:31:51.980Z,17.30
2019-06-26T06:34:26.989Z,15.60
2019-06-26T06:37:02.111Z,13.23
2019-06-26T06:39:37.208Z,13.00
2019-06-26T06:42:12.299Z,11.90
2019-06-26T06:44:47.590Z,11.83
2019-06-26T06:47:23.411Z,12.40
2019-06-26T06:49:58.632Z,10.80
2019-06-26T06:52:33.910Z,12.37
2019-06-26T06:55:09.696Z,10.93
2019-06-26T06:57:45.484Z,7.87
2019-06-26T07:00:21.775Z,6.77
2019-06-26T07:02:57.092Z,6.50
2019-06-26T07:05:32.132Z,6.80
2019-06-26T07:08:07.101Z,5.67
2019-06-26T07:10:42.251Z,5.90
2019-06-26T07:13:17.756Z,5.63
2019-06-26T07:15:52.811Z,5.67
2019-06-26T07:18:27.913Z,4.80
2019-06-26T07:21:04.049Z,5.90
2019-06-26T07:23:39.162Z,5.90
2019-06-26T07:26:14.138Z,5.53
2019-06-26T07:28:49.184Z,5.57
2019-06-26T07:31:24.330Z,5.60
2019-06-26T07:33:59.501Z,5.30
2019-06-26T07:36:35.238Z,5.37
2019-06-26T07:39:10.267Z,5.13
2019-06-26T07:41:45.259Z,5.73
2019-06-26T07:44:20.294Z,5.03
2019-06-26T07:46:55.264Z,5.20
2019-06-26T07:49:30.425Z,4.20
2019-06-26T07:52:05.407Z,4.27
2019-06-26T07:54:40.494Z,4.70
2019-06-26T07:57:15.524Z,4.10
2019-06-26T07:59:50.626Z,4.60
2019-06-26T08:02:25.692Z,3.90
2019-06-26T08:05:02.859Z,4.83
2019-06-26T08:07:37.833Z,5.20
2019-06-26T08:10:16.400Z,4.17
2019-06-26T08:12:51.542Z,4.23
2019-06-26T08:15:26.746Z,4.50
2019-06-26T08:18:01.784Z,3.20
2019-06-26T08:20:51.627Z,3.27
2019-06-26T08:23:13.523Z,3.83
2019-06-26T08:25:48.644Z,3.47
2019-06-26T08:28:23.933Z,3.63
2019-06-26T08:30:59.033Z,3.23
2019-06-26T08:33:34.249Z,3.07
2019-06-26T08:36:09.755Z,4.10
2019-06-26T08:38:44.732Z,2.90
2019-06-26T08:41:19.846Z,3.43
2019-06-26T08:43:54.815Z,3.70
2019-06-26T08:46:29.794Z,4.03
2019-06-26T08:49:04.792Z,3.57
2019-06-26T08:51:39.930Z,3.03
2019-06-26T08:54:14.976Z,3.50
2019-06-26T08:56:49.966Z,3.10
2019-06-26T08:59:24.931Z,4.10
2019-06-26T09:02:00.127Z,3.40
2019-06-26T09:04:35.408Z,3.63
2019-06-26T09:07:10.707Z,3.30
2019-06-26T09:09:45.703Z,3.13
2019-06-26T09:12:20.714Z,3.33
2019-06-26T09:14:55.694Z,3.00
2019-06-26T09:17:30.705Z,2.90
2019-06-26T09:20:06.888Z,2.90
2019-06-26T09:22:42.316Z,2.67
2019-06-26T09:25:21.913Z,3.10
2019-06-26T09:27:54.097Z,3.07
2019-06-26T09:30:29.614Z,2.80
2019-06-26T09:33:04.725Z,3.17
2019-06-26T09:35:40.762Z,3.00
2019-06-26T09:38:15.917Z,2.80
2019-06-26T09:40:51.013Z,3.20
2019-06-26T09:43:26.218Z,2.83
2019-06-26T09:46:01.393Z,3.40
2019-06-26T09:48:51.511Z,3.07
2019-06-26T09:51:14.148Z,3.20
2019-06-26T09:53:49.103Z,2.67
2019-06-26T09:56:24.225Z,3.07
2019-06-26T09:58:59.380Z,2.60
2019-06-26T10:01:36.218Z,3.47
2019-06-26T10:04:11.390Z,3.20
2019-06-26T10:06:46.411Z,3.13
2019-06-26T10:09:21.806Z,3.20
2019-06-26T10:11:56.814Z,3.00
2019-06-26T10:14:46.559Z,2.97
2019-06-26T10:17:10.152Z,2.70
2019-06-26T10:19:45.233Z,2.70
2019-06-26T10:22:20.540Z,3.27
2019-06-26T10:24:55.650Z,3.77
2019-06-26T10:27:30.801Z,2.97
2019-06-26T10:30:07.438Z,2.93
2019-06-26T10:32:42.687Z,3.33
2019-06-26T10:35:18.801Z,3.13
2019-06-26T10:37:53.792Z,3.30
2019-06-26T10:40:28.866Z,3.50
2019-06-26T10:43:03.910Z,3.70
2019-06-26T10:45:38.899Z,3.40
2019-06-26T10:48:13.907Z,3.00
2019-06-26T10:50:57.930Z,3.30
2019-06-26T10:53:25.666Z,3.33
2019-06-26T10:56:00.747Z,3.10
2019-06-26T10:58:35.729Z,2.83
2019-06-26T11:01:11.063Z,2.93
2019-06-26T11:03:46.660Z,3.53
2019-06-26T11:06:24.202Z,3.20
2019-06-26T11:08:59.345Z,2.77
2019-06-26T11:11:34.576Z,3.37
2019-06-26T11:14:09.559Z,2.93
2019-06-26T11:16:44.639Z,2.97
2019-06-26T11:19:19.767Z,3.03
2019-06-26T11:21:54.923Z,2.80
2019-06-26T11:24:30.068Z,3.70
2019-06-26T11:27:05.051Z,3.97
2019-06-26T11:29:40.823Z,3.77
2019-06-26T11:32:15.952Z,4.13
2019-06-26T11:34:51.332Z,4.10
2019-06-26T11:37:27.420Z,4.50
2019-06-26T11:40:02.799Z,4.60
2019-06-26T11:42:37.981Z,5.40
2019-06-26T11:45:13.961Z,4.47
2019-06-26T11:47:49.200Z,4.30
2019-06-26T11:50:30.336Z,5.00
2019-06-26T11:53:05.412Z,4.30
2019-06-26T11:55:40.597Z,4.37
2019-06-26T11:58:15.611Z,4.67
2019-06-26T12:00:50.853Z,4.43
2019-06-26T12:03:26.333Z,4.87
2019-06-26T12:06:17.832Z,4.07
2019-06-26T12:08:38.778Z,4.70
2019-06-26T12:11:13.852Z,4.83
2019-06-26T12:13:49.209Z,5.70
2019-06-26T12:16:24.435Z,5.17
2019-06-26T12:18:59.460Z,5.87
2019-06-26T12:21:34.609Z,5.50
2019-06-26T12:24:10.619Z,4.67
2019-06-26T12:26:45.614Z,5.07
2019-06-26T12:29:20.762Z,5.40
2019-06-26T12:31:55.859Z,5.70
2019-06-26T12:34:31.096Z,5.43
2019-06-26T12:37:06.376Z,6.30
2019-06-26T12:39:41.661Z,5.67
2019-06-26T12:42:16.950Z,7.03
2019-06-26T12:44:54.206Z,6.53
2019-06-26T12:47:29.295Z,6.20
2019-06-26T12:50:06.050Z,5.83
2019-06-26T12:52:41.297Z,4.90
2019-06-26T12:55:16.295Z,5.20
2019-06-26T12:57:52.884Z,5.30
2019-06-26T13:00:28.075Z,3.87
2019-06-26T13:03:03.370Z,4.47
2019-06-26T13:05:38.386Z,4.30
2019-06-26T13:08:13.513Z,3.93
2019-06-26T13:10:50.365Z,4.40
2019-06-26T13:13:25.245Z,4.30
2019-06-26T13:16:00.286Z,4.30
2019-06-26T13:18:35.388Z,3.27
2019-06-26T13:21:10.579Z,4.13
2019-06-26T13:23:45.923Z,3.77
2019-06-26T13:26:21.107Z,3.07
2019-06-26T13:28:56.267Z,3.10
2019-06-26T13:31:31.419Z,3.47
2019-06-26T13:34:06.809Z,3.03
2019-06-26T13:36:41.915Z,3.40
2019-06-26T13:39:16.893Z,2.73
2019-06-26T13:41:51.909Z,2.60
2019-06-26T13:44:28.194Z,2.87
2019-06-26T13:47:03.219Z,3.17
2019-06-26T13:49:38.224Z,2.50
2019-06-26T13:52:13.217Z,2.87
2019-06-26T13:54:48.190Z,2.97
2019-06-26T13:57:23.195Z,2.20
2019-06-26T13:59:58.291Z,2.90
2019-06-26T14:02:33.732Z,3.00
2019-06-26T14:05:09.044Z,2.60
2019-06-26T14:07:44.013Z,2.50
2019-06-26T14:10:19.307Z,2.90
2019-06-26T14:12:54.342Z,2.60
2019-06-26T14:15:29.525Z,2.63
2019-06-26T14:18:04.549Z,2.63
2019-06-26T14:20:39.733Z,3.40
2019-06-26T14:23:14.879Z,2.30
2019-06-26T14:25:49.861Z,3.20
2019-06-26T14:28:24.956Z,2.77
2019-06-26T14:31:01.801Z,2.97
2019-06-26T14:33:39.058Z,3.10
2019-06-26T14:36:14.071Z,2.97
2019-06-26T14:38:49.184Z,2.53
2019-06-26T14:41:25.240Z,3.10
2019-06-26T14:44:00.294Z,2.47
2019-06-26T14:46:35.444Z,2.70
2019-06-26T14:49:15.139Z,3.13
2019-06-26T14:51:54.572Z,3.53
2019-06-26T14:54:29.862Z,2.73
2019-06-26T14:57:05.110Z,2.70
2019-06-26T14:59:40.132Z,3.77
2019-06-26T15:02:15.233Z,3.50
2019-06-26T15:04:51.031Z,3.33
2019-06-26T15:07:26.035Z,3.97
2019-06-26T15:10:01.039Z,3.83
2019-06-26T15:12:36.059Z,3.60
2019-06-26T15:18:15.550Z,3.10
2019-06-26T15:21:25.551Z,3.07
2019-06-26T15:24:35.919Z,2.60
2019-06-26T15:27:46.109Z,2.63
2019-06-26T15:30:56.160Z,2.20
2019-06-26T15:34:06.767Z,2.57
2019-06-26T15:37:16.438Z,2.67
2019-06-26T15:40:26.264Z,2.83
2019-06-26T15:43:36.413Z,2.67
2019-06-26T15:46:47.592Z,2.47
2019-06-26T15:49:57.831Z,2.40
2019-06-26T15:53:08.824Z,2.70
2019-06-26T15:56:19.567Z,2.90
2019-06-26T15:59:31.148Z,2.97
2019-06-26T16:02:42.021Z,2.00
2019-06-26T16:05:53.113Z,1.83
2019-06-26T16:09:03.919Z,1.87
2019-06-26T16:12:15.139Z,2.17
2019-06-26T16:15:26.363Z,2.00
2019-06-26T16:18:43.255Z,1.90
2019-06-26T16:21:54.091Z,2.20
2019-06-26T16:25:08.053Z,1.50
2019-06-26T16:28:18.303Z,2.50
2019-06-26T16:31:29.177Z,2.03
2019-06-26T16:34:40.018Z,2.43
2019-06-26T16:37:50.764Z,1.47
2019-06-26T16:41:01.973Z,1.20
2019-06-26T16:44:12.521Z,1.20
2019-06-26T16:47:22.471Z,1.03
2019-06-26T16:50:32.616Z,1.20
2019-06-26T16:53:42.670Z,1.00
2019-06-26T16:56:53.582Z,1.43
2019-06-26T17:00:09.795Z,1.10
2019-06-26T17:03:17.581Z,1.10
2019-06-26T17:06:28.017Z,1.40
2019-06-26T17:09:39.945Z,1.27
2019-06-26T17:12:49.884Z,1.10
2019-06-26T17:16:01.624Z,1.10
2019-06-26T17:19:13.862Z,1.13
2019-06-26T17:22:23.775Z,1.13
2019-06-26T17:25:34.595Z,1.90
2019-06-26T17:28:45.473Z,1.27
2019-06-26T17:31:55.605Z,1.10
2019-06-26T17:35:06.153Z,0.93
2019-06-26T17:38:16.359Z,1.07
2019-06-26T17:41:27.511Z,1.03
2019-06-26T17:44:38.206Z,1.07
2019-06-26T17:47:48.482Z,0.93
2019-06-26T17:50:59.318Z,1.00
2019-06-26T17:54:10.265Z,1.20
2019-06-26T17:57:20.237Z,1.10
2019-06-26T18:00:36.099Z,0.60
2019-06-26T18:03:47.251Z,1.40
2019-06-26T18:06:57.821Z,1.07
2019-06-26T18:10:08.963Z,1.10
2019-06-26T18:13:19.922Z,1.20
2019-06-26T18:16:29.747Z,1.47
2019-06-26T18:19:40.471Z,1.50
2019-06-26T18:23:05.745Z,1.80
2019-06-26T18:26:13.014Z,1.20
2019-06-26T18:29:18.583Z,1.37
2019-06-26T18:32:30.607Z,2.10
2019-06-26T18:35:40.791Z,1.67
2019-06-26T18:38:56.171Z,1.63
2019-06-26T18:42:06.987Z,1.50
2019-06-26T18:45:18.194Z,1.30
2019-06-26T18:48:40.235Z,1.60
2019-06-26T18:51:53.299Z,1.40
2019-06-26T18:55:03.734Z,1.43
2019-06-26T18:58:14.784Z,1.57
2019-06-26T19:01:25.697Z,1.77
2019-06-26T19:04:35.547Z,1.57
2019-06-26T19:07:46.488Z,1.63
2019-06-26T19:10:57.005Z,1.80
2019-06-26T19:14:08.030Z,1.40
2019-06-26T19:17:18.058Z,2.60
2019-06-26T19:20:29.066Z,2.07
2019-06-26T19:23:39.772Z,1.40
2019-06-26T19:26:50.975Z,1.87
2019-06-26T19:30:01.076Z,2.00
2019-06-26T19:33:10.813Z,2.40
2019-06-26T19:36:24.137Z,2.17
2019-06-26T19:39:33.040Z,1.77
2019-06-26T19:42:44.254Z,1.87
2019-06-26T19:45:55.092Z,1.90
2019-06-26T19:49:06.017Z,2.30
2019-06-26T19:52:16.811Z,2.03
2019-06-26T19:55:26.796Z,2.20
2019-06-26T19:58:37.774Z,1.63
2019-06-26T20:01:51.278Z,1.33
2019-06-26T20:05:00.706Z,1.70
2019-06-26T20:08:11.195Z,2.13
2019-06-26T20:11:22.389Z,1.43
2019-06-26T20:14:32.555Z,1.50
2019-06-26T20:17:42.370Z,1.57
2019-06-26T20:20:52.960Z,2.07
2019-06-26T20:24:03.120Z,1.60
2019-06-26T20:27:15.032Z,2.23
2019-06-26T20:30:30.558Z,2.10
2019-06-26T20:33:41.456Z,2.10
2019-06-26T20:36:52.472Z,1.50
2019-06-26T20:40:06.253Z,1.50
2019-06-26T20:43:16.741Z,1.40
2019-06-26T20:46:26.912Z,1.40
2019-06-26T20:49:52.586Z,1.50
2019-06-26T20:52:51.148Z,1.37
2019-06-26T20:56:05.260Z,1.23
2019-06-26T20:59:13.299Z,1.33
2019-06-26T21:02:23.574Z,1.37
2019-06-26T21:05:34.290Z,1.23
2019-06-26T21:08:45.281Z,1.20
2019-06-26T21:11:56.119Z,1.40
2019-06-26T21:15:07.697Z,1.93
2019-06-26T21:17:42.505Z,1.40
2019-06-26T21:20:18.090Z,1.30
2019-06-26T21:22:53.079Z,1.40
2019-06-26T21:25:28.190Z,1.40
2019-06-26T21:28:06.524Z,1.20
2019-06-26T21:30:41.725Z,1.40
2019-06-26T21:33:16.738Z,1.70
2019-06-26T21:35:51.768Z,1.67
2019-06-26T21:38:26.767Z,1.37
2019-06-26T21:41:03.162Z,1.40
2019-06-26T21:43:38.135Z,1.77
2019-06-26T21:46:13.146Z,1.20
2019-06-26T21:48:48.213Z,1.57
2019-06-26T21:51:23.235Z,1.20
2019-06-26T21:53:58.328Z,1.37
2019-06-26T21:56:51.055Z,1.30
2019-06-26T21:59:43.817Z,1.30
2019-06-26T22:02:36.587Z,1.30
2019-06-26T22:05:12.211Z,1.07
2019-06-26T22:07:54.351Z,1.33
2019-06-26T22:10:30.975Z,1.33
2019-06-26T22:13:06.286Z,1.23
2019-06-26T22:15:41.464Z,1.60
2019-06-26T22:18:16.495Z,1.53
2019-06-26T22:20:52.103Z,1.63
2019-06-26T22:23:27.162Z,1.53
2019-06-26T22:26:02.255Z,1.87
2019-06-26T22:28:38.043Z,1.70
2019-06-26T22:31:13.026Z,2.10
2019-06-26T22:33:47.993Z,1.53
2019-06-26T22:36:22.982Z,1.13
2019-06-26T22:38:59.151Z,1.30
2019-06-26T22:41:34.999Z,1.27
2019-06-26T22:44:09.970Z,1.67
2019-06-26T22:46:45.165Z,1.67
2019-06-26T22:49:20.239Z,1.60
2019-06-26T22:51:56.081Z,1.17
2019-06-26T22:54:31.039Z,1.90
2019-06-26T22:57:06.036Z,1.23
2019-06-26T22:59:41.129Z,1.17
2019-06-26T23:02:17.507Z,2.50
2019-06-26T23:04:52.502Z,1.30
2019-06-26T23:07:27.485Z,1.40
2019-06-26T23:10:02.477Z,1.20
2019-06-26T23:12:37.607Z,1.87
2019-06-26T23:15:13.209Z,1.67
2019-06-26T23:17:48.437Z,2.00
2019-06-26T23:20:23.406Z,2.10
2019-06-26T23:22:58.504Z,1.60
2019-06-26T23:25:35.186Z,1.57
2019-06-26T23:28:10.203Z,2.10
2019-06-26T23:30:45.179Z,1.97
2019-06-26T23:33:20.376Z,1.73
2019-06-26T23:35:55.348Z,1.60
2019-06-26T23:38:31.529Z,1.57
2019-06-26T23:41:06.519Z,1.97
2019-06-26T23:43:41.635Z,1.50
2019-06-26T23:46:16.603Z,1.60
2019-06-26T23:48:51.813Z,1.60
2019-06-26T23:51:26.773Z,2.20
2019-06-26T23:54:01.823Z,2.30
2019-06-26T23:56:40.632Z,1.60
2019-06-26T23:59:13.661Z,2.03
